createdAt,value
2023-04-20T00:00:52.565Z,1008.67
2023-04-20T00:01:52.562Z,1008.66
2023-04-20T00:02:52.720Z,1008.66
2023-04-20T00:03:52.895Z,1008.64
2023-04-20T00:04:52.545Z,1008.62
2023-04-20T00:05:52.522Z,1008.61
2023-04-20T00:06:52.492Z,1008.60
2023-04-20T00:07:52.480Z,1008.59
2023-04-20T00:08:52.517Z,1008.57
2023-04-20T00:09:52.469Z,1008.55
2023-04-20T00:10:52.460Z,1008.54
2023-04-20T00:11:52.435Z,1008.53
2023-04-20T00:12:52.447Z,1008.53
2023-04-20T00:13:52.597Z,1008.52
2023-04-20T00:14:52.433Z,1008.50
2023-04-20T00:15:52.425Z,1008.48
2023-04-20T00:16:52.433Z,1008.45
2023-04-20T00:17:52.447Z,1008.43
2023-04-20T00:18:52.434Z,1008.41
2023-04-20T00:19:52.385Z,1008.38
2023-04-20T00:20:52.415Z,1008.37
2023-04-20T00:21:52.354Z,1008.34
2023-04-20T00:22:52.368Z,1008.32
2023-04-20T00:23:52.399Z,1008.31
2023-04-20T00:24:52.320Z,1008.29
2023-04-20T00:25:52.305Z,1008.27
2023-04-20T00:26:52.322Z,1008.25
2023-04-20T00:27:52.278Z,1008.24
2023-04-20T00:28:52.295Z,1008.22
2023-04-20T00:29:53.350Z,1008.20
2023-04-20T00:30:52.312Z,1008.18
2023-04-20T00:31:52.292Z,1008.15
2023-04-20T00:32:52.296Z,1008.14
2023-04-20T00:33:52.243Z,1008.12
2023-04-20T00:34:52.257Z,1008.12
2023-04-20T00:35:52.304Z,1008.10
2023-04-20T00:36:52.212Z,1008.09
2023-04-20T00:37:52.203Z,1008.08
2023-04-20T00:38:52.180Z,1008.08
2023-04-20T00:39:52.176Z,1008.06
2023-04-20T00:40:52.166Z,1008.05
2023-04-20T00:41:52.208Z,1008.05
2023-04-20T00:42:52.135Z,1008.04
2023-04-20T00:43:52.156Z,1008.04
2023-04-20T00:44:52.138Z,1008.03
2023-04-20T00:45:52.172Z,1008.02
2023-04-20T00:46:52.333Z,1008.02
2023-04-20T00:47:52.114Z,1008.01
2023-04-20T00:48:52.078Z,1008.00
2023-04-20T00:49:52.094Z,1007.98
2023-04-20T00:50:52.069Z,1007.96
2023-04-20T00:51:52.079Z,1007.96
2023-04-20T00:52:52.095Z,1007.94
2023-04-20T00:53:52.038Z,1007.92
2023-04-20T00:54:52.034Z,1007.92
2023-04-20T00:55:52.117Z,1007.93
2023-04-20T00:56:52.015Z,1007.92
2023-04-20T00:57:52.010Z,1007.92
2023-04-20T00:58:52.038Z,1007.91
2023-04-20T00:59:52.022Z,1007.90
2023-04-20T01:00:51.966Z,1007.89
2023-04-20T01:01:52.033Z,1007.87
2023-04-20T01:02:52.073Z,1007.86
2023-04-20T01:03:52.040Z,1007.85
2023-04-20T01:04:51.960Z,1007.85
2023-04-20T01:05:51.935Z,1007.83
2023-04-20T01:06:51.893Z,1007.82
2023-04-20T01:07:51.900Z,1007.80
2023-04-20T01:08:51.943Z,1007.79
2023-04-20T01:09:51.895Z,1007.79
2023-04-20T01:10:51.874Z,1007.78
2023-04-20T01:11:51.838Z,1007.76
2023-04-20T01:12:51.839Z,1007.75
2023-04-20T01:13:51.870Z,1007.74
2023-04-20T01:14:51.831Z,1007.74
2023-04-20T01:15:51.937Z,1007.73
2023-04-20T01:16:51.809Z,1007.73
2023-04-20T01:17:51.845Z,1007.72
2023-04-20T01:18:51.802Z,1007.73
2023-04-20T01:19:51.824Z,1007.71
2023-04-20T01:20:51.784Z,1007.72
2023-04-20T01:21:51.774Z,1007.70
2023-04-20T01:22:51.791Z,1007.69
2023-04-20T01:23:51.735Z,1007.68
2023-04-20T01:24:51.774Z,1007.67
2023-04-20T01:25:51.707Z,1007.65
2023-04-20T01:26:51.717Z,1007.63
2023-04-20T01:27:51.704Z,1007.62
2023-04-20T01:28:51.721Z,1007.61
2023-04-20T01:29:51.750Z,1007.60
2023-04-20T01:30:51.688Z,1007.59
2023-04-20T01:31:51.771Z,1007.58
2023-04-20T01:32:52.536Z,1007.55
2023-04-20T01:33:51.627Z,1007.54
2023-04-20T01:34:51.622Z,1007.53
2023-04-20T01:35:51.641Z,1007.53
2023-04-20T01:36:52.615Z,1007.51
2023-04-20T01:37:51.602Z,1007.50
2023-04-20T01:38:51.580Z,1007.49
2023-04-20T01:39:51.668Z,1007.49
2023-04-20T01:40:51.590Z,1007.49
2023-04-20T01:41:51.574Z,1007.49
2023-04-20T01:42:51.604Z,1007.49
2023-04-20T01:43:51.534Z,1007.49
2023-04-20T01:44:51.530Z,1007.48
2023-04-20T01:45:51.583Z,1007.47
2023-04-20T01:46:51.575Z,1007.47
2023-04-20T01:47:51.537Z,1007.47
2023-04-20T01:48:51.505Z,1007.45
2023-04-20T01:49:51.990Z,1007.43
2023-04-20T01:50:51.474Z,1007.43
2023-04-20T01:51:51.486Z,1007.42
2023-04-20T01:52:51.458Z,1007.42
2023-04-20T01:53:51.465Z,1007.42
2023-04-20T01:54:51.428Z,1007.41
2023-04-20T01:55:51.464Z,1007.39
2023-04-20T01:56:51.438Z,1007.38
2023-04-20T01:57:51.400Z,1007.37
2023-04-20T01:58:51.398Z,1007.36
2023-04-20T01:59:51.408Z,1007.36
2023-04-20T02:00:51.419Z,1007.36
2023-04-20T02:01:51.375Z,1007.36
2023-04-20T02:02:51.536Z,1007.35
2023-04-20T02:03:51.477Z,1007.35
2023-04-20T02:04:51.340Z,1007.34
2023-04-20T02:05:51.318Z,1007.34
2023-04-20T02:06:51.334Z,1007.33
2023-04-20T02:07:51.331Z,1007.32
2023-04-20T02:08:51.325Z,1007.32
2023-04-20T02:09:51.347Z,1007.31
2023-04-20T02:10:51.299Z,1007.30
2023-04-20T02:11:51.350Z,1007.29
2023-04-20T02:12:51.248Z,1007.29
2023-04-20T02:13:51.268Z,1007.30
2023-04-20T02:14:51.272Z,1007.30
2023-04-20T02:15:51.262Z,1007.30
2023-04-20T02:16:51.248Z,1007.29
2023-04-20T02:17:51.306Z,1007.29
2023-04-20T02:18:51.206Z,1007.29
2023-04-20T02:19:51.211Z,1007.28
2023-04-20T02:20:51.196Z,1007.29
2023-04-20T02:21:51.222Z,1007.28
2023-04-20T02:22:51.186Z,1007.26
2023-04-20T02:23:51.197Z,1007.25
2023-04-20T02:24:51.140Z,1007.24
2023-04-20T02:25:51.145Z,1007.23
2023-04-20T02:26:51.176Z,1007.22
2023-04-20T02:27:51.094Z,1007.21
2023-04-20T02:28:51.212Z,1007.20
2023-04-20T02:29:51.084Z,1007.19
2023-04-20T02:30:51.105Z,1007.17
2023-04-20T02:31:51.082Z,1007.16
2023-04-20T02:32:51.093Z,1007.15
2023-04-20T02:33:51.062Z,1007.14
2023-04-20T02:34:51.025Z,1007.13
2023-04-20T02:35:51.030Z,1007.12
2023-04-20T02:36:51.009Z,1007.11
2023-04-20T02:37:51.061Z,1007.10
2023-04-20T02:38:50.979Z,1007.08
2023-04-20T02:39:51.074Z,1007.06
2023-04-20T02:40:50.989Z,1007.05
2023-04-20T02:41:50.968Z,1007.05
2023-04-20T02:42:50.935Z,1007.04
2023-04-20T02:43:50.980Z,1007.05
2023-04-20T02:44:50.952Z,1007.05
2023-04-20T02:45:50.922Z,1007.05
2023-04-20T02:46:51.115Z,1007.05
2023-04-20T02:47:50.990Z,1007.06
2023-04-20T02:48:50.946Z,1007.08
2023-04-20T02:49:50.959Z,1007.08
2023-04-20T02:50:50.898Z,1007.08
2023-04-20T02:51:50.930Z,1007.10
2023-04-20T02:52:50.868Z,1007.09
2023-04-20T02:53:50.853Z,1007.09
2023-04-20T02:54:50.823Z,1007.08
2023-04-20T02:55:50.841Z,1007.09
2023-04-20T02:56:50.812Z,1007.06
2023-04-20T02:57:50.826Z,1007.04
2023-04-20T02:58:50.855Z,1007.07
2023-04-20T02:59:50.841Z,1007.06
2023-04-20T03:00:50.778Z,1007.05
2023-04-20T03:01:50.829Z,1007.04
2023-04-20T03:02:50.849Z,1007.04
2023-04-20T03:03:50.984Z,1007.02
2023-04-20T03:04:50.804Z,1006.99
2023-04-20T03:05:50.762Z,1006.98
2023-04-20T03:06:50.730Z,1006.97
2023-04-20T03:07:50.714Z,1006.95
2023-04-20T03:08:50.684Z,1006.95
2023-04-20T03:09:50.743Z,1006.93
2023-04-20T03:10:50.697Z,1006.92
2023-04-20T03:11:50.658Z,1006.92
2023-04-20T03:12:50.659Z,1006.92
2023-04-20T03:13:50.656Z,1006.93
2023-04-20T03:14:50.665Z,1006.93
2023-04-20T03:15:50.625Z,1006.93
2023-04-20T03:16:50.676Z,1006.92
2023-04-20T03:17:50.673Z,1006.92
2023-04-20T03:18:50.587Z,1006.91
2023-04-20T03:19:50.635Z,1006.90
2023-04-20T03:20:50.556Z,1006.89
2023-04-20T03:21:50.559Z,1006.89
2023-04-20T03:22:50.668Z,1006.88
2023-04-20T03:23:50.585Z,1006.87
2023-04-20T03:24:52.900Z,1006.87
2023-04-20T03:25:51.484Z,1006.88
2023-04-20T03:26:50.503Z,1006.88
2023-04-20T03:27:50.543Z,1006.88
2023-04-20T03:28:50.514Z,1006.88
2023-04-20T03:29:50.507Z,1006.88
2023-04-20T03:30:50.516Z,1006.86
2023-04-20T03:31:50.514Z,1006.86
2023-04-20T03:32:50.605Z,1006.85
2023-04-20T03:33:50.441Z,1006.85
2023-04-20T03:34:50.609Z,1006.85
2023-04-20T03:35:50.433Z,1006.84
2023-04-20T03:36:50.403Z,1006.82
2023-04-20T03:37:50.451Z,1006.82
2023-04-20T03:38:50.405Z,1006.80
2023-04-20T03:39:50.426Z,1006.80
2023-04-20T03:40:50.394Z,1006.80
2023-04-20T03:41:50.375Z,1006.80
2023-04-20T03:42:50.344Z,1006.80
2023-04-20T03:43:50.401Z,1006.81
2023-04-20T03:44:50.318Z,1006.81
2023-04-20T03:45:50.392Z,1006.81
2023-04-20T03:46:50.334Z,1006.81
2023-04-20T03:47:50.357Z,1006.81
2023-04-20T03:48:50.318Z,1006.81
2023-04-20T03:49:50.270Z,1006.81
2023-04-20T03:50:50.315Z,1006.81
2023-04-20T03:51:50.243Z,1006.81
2023-04-20T03:52:50.237Z,1006.80
2023-04-20T03:53:50.249Z,1006.80
2023-04-20T03:54:50.249Z,1006.79
2023-04-20T03:55:50.201Z,1006.78
2023-04-20T03:56:50.173Z,1006.78
2023-04-20T03:57:50.244Z,1006.78
2023-04-20T03:58:50.151Z,1006.78
2023-04-20T03:59:50.126Z,1006.77
2023-04-20T04:00:50.195Z,1006.78
2023-04-20T04:01:50.300Z,1006.79
2023-04-20T04:02:50.298Z,1006.79
2023-04-20T04:03:50.297Z,1006.80
2023-04-20T04:04:50.216Z,1006.80
2023-04-20T04:05:50.170Z,1006.80
2023-04-20T04:06:50.104Z,1006.80
2023-04-20T04:07:50.135Z,1006.79
2023-04-20T04:08:50.047Z,1006.77
2023-04-20T04:09:50.061Z,1006.75
2023-04-20T04:10:50.031Z,1006.75
2023-04-20T04:11:50.038Z,1006.74
2023-04-20T04:12:50.023Z,1006.74
2023-04-20T04:13:50.001Z,1006.73
2023-04-20T04:14:49.995Z,1006.71
2023-04-20T04:15:50.003Z,1006.72
2023-04-20T04:16:50.045Z,1006.71
2023-04-20T04:17:50.114Z,1006.70
2023-04-20T04:18:49.995Z,1006.71
2023-04-20T04:19:49.911Z,1006.71
2023-04-20T04:20:49.940Z,1006.67
2023-04-20T04:21:49.920Z,1006.67
2023-04-20T04:22:49.882Z,1006.68
2023-04-20T04:23:49.883Z,1006.67
2023-04-20T04:24:49.891Z,1006.65
2023-04-20T04:25:49.870Z,1006.64
2023-04-20T04:26:49.869Z,1006.61
2023-04-20T04:27:49.874Z,1006.62
2023-04-20T04:28:49.834Z,1006.62
2023-04-20T04:29:49.841Z,1006.62
2023-04-20T04:30:49.824Z,1006.63
2023-04-20T04:31:49.916Z,1006.63
2023-04-20T04:32:49.878Z,1006.63
2023-04-20T04:33:49.874Z,1006.64
2023-04-20T04:34:49.795Z,1006.64
2023-04-20T04:35:49.819Z,1006.65
2023-04-20T04:36:49.771Z,1006.65
2023-04-20T04:37:49.776Z,1006.65
2023-04-20T04:38:49.776Z,1006.62
2023-04-20T04:39:49.746Z,1006.63
2023-04-20T04:40:49.715Z,1006.63
2023-04-20T04:41:49.716Z,1006.62
2023-04-20T04:42:49.719Z,1006.60
2023-04-20T04:43:49.682Z,1006.58
2023-04-20T04:44:49.679Z,1006.60
2023-04-20T04:45:49.682Z,1006.61
2023-04-20T04:46:49.785Z,1006.61
2023-04-20T04:47:49.686Z,1006.63
2023-04-20T04:48:49.706Z,1006.62
2023-04-20T04:49:49.670Z,1006.62
2023-04-20T04:50:49.633Z,1006.62
2023-04-20T04:51:49.632Z,1006.62
2023-04-20T04:52:49.632Z,1006.60
2023-04-20T04:53:49.774Z,1006.59
2023-04-20T04:54:49.582Z,1006.60
2023-04-20T04:55:49.638Z,1006.59
2023-04-20T04:56:49.624Z,1006.59
2023-04-20T04:57:49.694Z,1006.59
2023-04-20T04:58:49.568Z,1006.60
2023-04-20T04:59:49.519Z,1006.62
2023-04-20T05:00:49.541Z,1006.61
2023-04-20T05:01:49.616Z,1006.62
2023-04-20T05:02:49.707Z,1006.62
2023-04-20T05:03:49.712Z,1006.64
2023-04-20T05:04:49.551Z,1006.65
2023-04-20T05:05:49.457Z,1006.64
2023-04-20T05:06:49.447Z,1006.64
2023-04-20T05:07:49.503Z,1006.64
2023-04-20T05:08:49.454Z,1006.64
2023-04-20T05:09:49.467Z,1006.64
2023-04-20T05:10:49.425Z,1006.64
2023-04-20T05:11:49.449Z,1006.64
2023-04-20T05:12:49.383Z,1006.63
2023-04-20T05:13:49.423Z,1006.63
2023-04-20T05:14:49.474Z,1006.62
2023-04-20T05:15:49.401Z,1006.61
2023-04-20T05:16:49.357Z,1006.61
2023-04-20T05:17:49.426Z,1006.62
2023-04-20T05:18:49.414Z,1006.62
2023-04-20T05:19:49.362Z,1006.64
2023-04-20T05:20:49.341Z,1006.63
2023-04-20T05:21:49.340Z,1006.63
2023-04-20T05:22:49.302Z,1006.63
2023-04-20T05:23:49.333Z,1006.64
2023-04-20T05:24:49.353Z,1006.65
2023-04-20T05:25:49.247Z,1006.65
2023-04-20T05:26:49.248Z,1006.65
2023-04-20T05:27:49.253Z,1006.65
2023-04-20T05:28:49.225Z,1006.66
2023-04-20T05:29:49.265Z,1006.67
2023-04-20T05:30:49.213Z,1006.67
2023-04-20T05:31:49.237Z,1006.67
2023-04-20T05:32:51.550Z,1006.68
2023-04-20T05:33:49.209Z,1006.69
2023-04-20T05:34:49.165Z,1006.70
2023-04-20T05:35:49.191Z,1006.72
2023-04-20T05:36:49.311Z,1006.73
2023-04-20T05:37:49.199Z,1006.74
2023-04-20T05:38:49.316Z,1006.75
2023-04-20T05:39:49.130Z,1006.75
2023-04-20T05:40:50.570Z,1006.76
2023-04-20T05:41:49.108Z,1006.75
2023-04-20T05:42:49.132Z,1006.76
2023-04-20T05:43:49.072Z,1006.75
2023-04-20T05:44:49.076Z,1006.74
2023-04-20T05:45:49.206Z,1006.73
2023-04-20T05:46:49.068Z,1006.72
2023-04-20T05:47:49.073Z,1006.72
2023-04-20T05:48:49.057Z,1006.72
2023-04-20T05:49:49.016Z,1006.70
2023-04-20T05:50:49.062Z,1006.74
2023-04-20T05:51:49.027Z,1006.74
2023-04-20T05:52:49.071Z,1006.74
2023-04-20T05:53:48.997Z,1006.75
2023-04-20T05:54:48.968Z,1006.76
2023-04-20T05:55:48.953Z,1006.75
2023-04-20T05:56:48.952Z,1006.76
2023-04-20T05:57:48.958Z,1006.76
2023-04-20T05:58:49.007Z,1006.75
2023-04-20T05:59:48.938Z,1006.75
2023-04-20T06:00:48.939Z,1006.75
2023-04-20T06:01:48.921Z,1006.76
2023-04-20T06:02:48.987Z,1006.75
2023-04-20T06:03:49.173Z,1006.76
2023-04-20T06:04:48.983Z,1006.77
2023-04-20T06:05:48.882Z,1006.77
2023-04-20T06:06:48.859Z,1006.78
2023-04-20T06:07:48.859Z,1006.80
2023-04-20T06:08:48.855Z,1006.79
2023-04-20T06:09:48.824Z,1006.80
2023-04-20T06:10:48.811Z,1006.80
2023-04-20T06:11:48.885Z,1006.80
2023-04-20T06:12:48.818Z,1006.82
2023-04-20T06:13:48.783Z,1006.82
2023-04-20T06:14:48.774Z,1006.83
2023-04-20T06:15:48.863Z,1006.83
2023-04-20T06:16:48.769Z,1006.83
2023-04-20T06:17:48.848Z,1006.83
2023-04-20T06:18:48.733Z,1006.81
2023-04-20T06:19:48.723Z,1006.81
2023-04-20T06:20:48.744Z,1006.81
2023-04-20T06:21:48.761Z,1006.80
2023-04-20T06:22:48.709Z,1006.81
2023-04-20T06:23:48.696Z,1006.80
2023-04-20T06:24:48.757Z,1006.80
2023-04-20T06:25:48.672Z,1006.80
2023-04-20T06:26:48.677Z,1006.81
2023-04-20T06:27:50.707Z,1006.81
2023-04-20T06:28:48.692Z,1006.82
2023-04-20T06:29:48.677Z,1006.82
2023-04-20T06:30:48.601Z,1006.82
2023-04-20T06:31:48.762Z,1006.82
2023-04-20T06:32:48.629Z,1006.80
2023-04-20T06:33:48.592Z,1006.81
2023-04-20T06:34:48.581Z,1006.80
2023-04-20T06:35:48.645Z,1006.80
2023-04-20T06:36:48.567Z,1006.80
2023-04-20T06:37:48.565Z,1006.79
2023-04-20T06:38:48.581Z,1006.77
2023-04-20T06:39:48.573Z,1006.76
2023-04-20T06:40:48.522Z,1006.75
2023-04-20T06:41:48.536Z,1006.74
2023-04-20T06:42:48.541Z,1006.74
2023-04-20T06:43:48.499Z,1006.76
2023-04-20T06:44:48.488Z,1006.74
2023-04-20T06:45:48.529Z,1006.73
2023-04-20T06:46:48.532Z,1006.73
2023-04-20T06:47:48.653Z,1006.74
2023-04-20T06:48:48.451Z,1006.73
2023-04-20T06:49:49.442Z,1006.74
2023-04-20T06:50:48.449Z,1006.75
2023-04-20T06:51:48.491Z,1006.74
2023-04-20T06:52:48.613Z,1006.76
2023-04-20T06:53:48.386Z,1006.76
2023-04-20T06:54:48.494Z,1006.77
2023-04-20T06:55:48.415Z,1006.78
2023-04-20T06:56:48.363Z,1006.78
2023-04-20T06:57:48.336Z,1006.78
2023-04-20T06:58:48.785Z,1006.79
2023-04-20T06:59:48.328Z,1006.79
2023-04-20T07:00:48.345Z,1006.79
2023-04-20T07:01:48.382Z,1006.80
2023-04-20T07:02:48.473Z,1006.79
2023-04-20T07:03:48.714Z,1006.77
2023-04-20T07:04:48.495Z,1006.76
2023-04-20T07:05:48.461Z,1006.77
2023-04-20T07:06:48.283Z,1006.76
2023-04-20T07:07:48.334Z,1006.77
2023-04-20T07:08:48.245Z,1006.77
2023-04-20T07:09:48.356Z,1006.76
2023-04-20T07:10:48.241Z,1006.77
2023-04-20T07:11:48.291Z,1006.75
2023-04-20T07:12:48.242Z,1006.76
2023-04-20T07:13:48.237Z,1006.76
2023-04-20T07:14:48.160Z,1006.75
2023-04-20T07:15:48.270Z,1006.74
2023-04-20T07:16:48.378Z,1006.73
2023-04-20T07:17:48.281Z,1006.73
2023-04-20T07:18:48.258Z,1006.73
2023-04-20T07:19:48.155Z,1006.71
2023-04-20T07:20:48.116Z,1006.71
2023-04-20T07:21:48.121Z,1006.70
2023-04-20T07:22:48.121Z,1006.69
2023-04-20T07:23:48.153Z,1006.69
2023-04-20T07:24:48.062Z,1006.68
2023-04-20T07:25:48.085Z,1006.67
2023-04-20T07:26:48.176Z,1006.66
2023-04-20T07:27:48.070Z,1006.64
2023-04-20T07:28:48.080Z,1006.63
2023-04-20T07:29:48.096Z,1006.64
2023-04-20T07:30:48.026Z,1006.63
2023-04-20T07:31:48.025Z,1006.61
2023-04-20T07:32:48.060Z,1006.61
2023-04-20T07:33:48.386Z,1006.61
2023-04-20T07:34:48.128Z,1006.63
2023-04-20T07:35:48.158Z,1006.63
2023-04-20T07:36:47.978Z,1006.62
2023-04-20T07:37:48.027Z,1006.64
2023-04-20T07:38:48.287Z,1006.65
2023-04-20T07:39:47.916Z,1006.65
2023-04-20T07:40:48.198Z,1006.66
2023-04-20T07:41:47.901Z,1006.67
2023-04-20T07:42:47.884Z,1006.69
2023-04-20T07:43:48.037Z,1006.70
2023-04-20T07:44:47.870Z,1006.70
2023-04-20T07:45:47.934Z,1006.72
2023-04-20T07:46:47.858Z,1006.73
2023-04-20T07:47:47.876Z,1006.74
2023-04-20T07:48:47.963Z,1006.77
2023-04-20T07:49:47.816Z,1006.79
2023-04-20T07:50:47.976Z,1006.78
2023-04-20T07:51:47.839Z,1006.79
2023-04-20T07:52:47.818Z,1006.76
2023-04-20T07:53:47.908Z,1006.76
2023-04-20T07:54:47.915Z,1006.75
2023-04-20T07:55:49.711Z,1006.75
2023-04-20T07:56:47.810Z,1006.76
2023-04-20T07:57:47.756Z,1006.77
2023-04-20T07:58:47.818Z,1006.78
2023-04-20T07:59:47.787Z,1006.79
2023-04-20T08:00:47.729Z,1006.77
2023-04-20T08:01:47.922Z,1006.74
2023-04-20T08:02:47.854Z,1006.71
2023-04-20T08:03:48.223Z,1006.69
2023-04-20T08:04:47.816Z,1006.70
2023-04-20T08:05:47.841Z,1006.70
2023-04-20T08:06:47.720Z,1006.71
2023-04-20T08:07:48.471Z,1006.69
2023-04-20T08:08:47.908Z,1006.69
2023-04-20T08:09:47.614Z,1006.66
2023-04-20T08:10:47.802Z,1006.65
2023-04-20T08:11:47.780Z,1006.65
2023-04-20T08:12:49.007Z,1006.65
2023-04-20T08:13:47.689Z,1006.69
2023-04-20T08:14:47.663Z,1006.69
2023-04-20T08:15:47.613Z,1006.71
2023-04-20T08:16:47.575Z,1006.71
2023-04-20T08:17:47.775Z,1006.70
2023-04-20T08:18:47.537Z,1006.70
2023-04-20T08:19:47.518Z,1006.69
2023-04-20T08:20:47.522Z,1006.65
2023-04-20T08:21:47.522Z,1006.64
2023-04-20T08:22:47.603Z,1006.63
2023-04-20T08:23:47.525Z,1006.61
2023-04-20T08:24:47.475Z,1006.61
2023-04-20T08:25:47.451Z,1006.62
2023-04-20T08:26:47.496Z,1006.60
2023-04-20T08:27:47.603Z,1006.59
2023-04-20T08:28:47.430Z,1006.58
2023-04-20T08:29:47.410Z,1006.57
2023-04-20T08:30:47.421Z,1006.57
2023-04-20T08:31:49.179Z,1006.57
2023-04-20T08:32:47.694Z,1006.56
2023-04-20T08:33:47.998Z,1006.59
2023-04-20T08:34:47.369Z,1006.58
2023-04-20T08:35:47.436Z,1006.57
2023-04-20T08:36:47.350Z,1006.58
2023-04-20T08:37:47.381Z,1006.59
2023-04-20T08:38:47.356Z,1006.60
2023-04-20T08:39:47.330Z,1006.60
2023-04-20T08:40:47.326Z,1006.58
2023-04-20T08:41:47.360Z,1006.57
2023-04-20T08:42:47.455Z,1006.57
2023-04-20T08:43:47.292Z,1006.56
2023-04-20T08:44:47.285Z,1006.57
2023-04-20T08:45:47.274Z,1006.56
2023-04-20T08:46:47.302Z,1006.56
2023-04-20T08:47:47.264Z,1006.53
2023-04-20T08:48:47.282Z,1006.53
2023-04-20T08:49:47.473Z,1006.53
2023-04-20T08:50:47.275Z,1006.54
2023-04-20T08:51:47.308Z,1006.55
2023-04-20T08:52:47.209Z,1006.55
2023-04-20T08:53:47.187Z,1006.55
2023-04-20T08:54:55.941Z,1006.55
2023-04-20T08:55:47.167Z,1006.53
2023-04-20T08:56:47.212Z,1006.50
2023-04-20T08:57:47.146Z,1006.48
2023-04-20T08:58:47.153Z,1006.46
2023-04-20T08:59:47.131Z,1006.47
2023-04-20T09:00:47.121Z,1006.45
2023-04-20T09:01:47.170Z,1006.43
2023-04-20T09:02:47.400Z,1006.41
2023-04-20T09:03:47.274Z,1006.41
2023-04-20T09:04:47.235Z,1006.40
2023-04-20T09:05:47.102Z,1006.42
2023-04-20T09:06:47.051Z,1006.42
2023-04-20T09:07:47.872Z,1006.42
2023-04-20T09:08:47.076Z,1006.42
2023-04-20T09:09:47.116Z,1006.41
2023-04-20T09:10:47.033Z,1006.42
2023-04-20T09:11:47.031Z,1006.41
2023-04-20T09:12:46.999Z,1006.38
2023-04-20T09:13:46.998Z,1006.36
2023-04-20T09:14:46.986Z,1006.37
2023-04-20T09:15:47.015Z,1006.37
2023-04-20T09:16:47.061Z,1006.36
2023-04-20T09:17:47.026Z,1006.35
2023-04-20T09:18:46.954Z,1006.32
2023-04-20T09:19:46.956Z,1006.32
2023-04-20T09:20:46.930Z,1006.31
2023-04-20T09:21:46.938Z,1006.32
2023-04-20T09:22:46.966Z,1006.31
2023-04-20T09:23:46.922Z,1006.29
2023-04-20T09:24:46.942Z,1006.27
2023-04-20T09:25:46.895Z,1006.26
2023-04-20T09:26:46.903Z,1006.27
2023-04-20T09:27:47.025Z,1006.27
2023-04-20T09:28:46.908Z,1006.29
2023-04-20T09:29:46.889Z,1006.26
2023-04-20T09:30:46.901Z,1006.24
2023-04-20T09:31:46.840Z,1006.25
2023-04-20T09:32:46.835Z,1006.23
2023-04-20T09:33:46.784Z,1006.27
2023-04-20T09:34:46.786Z,1006.26
2023-04-20T09:35:46.849Z,1006.26
2023-04-20T09:36:46.746Z,1006.25
2023-04-20T09:37:46.772Z,1006.27
2023-04-20T09:38:46.724Z,1006.24
2023-04-20T09:39:46.769Z,1006.23
2023-04-20T09:40:46.707Z,1006.22
2023-04-20T09:41:46.710Z,1006.22
2023-04-20T09:42:46.682Z,1006.20
2023-04-20T09:43:46.727Z,1006.19
2023-04-20T09:44:46.677Z,1006.20
2023-04-20T09:45:46.737Z,1006.17
2023-04-20T09:46:46.704Z,1006.16
2023-04-20T09:47:46.732Z,1006.18
2023-04-20T09:48:46.732Z,1006.18
2023-04-20T09:49:46.636Z,1006.13
2023-04-20T09:50:49.899Z,1006.15
2023-04-20T09:51:46.659Z,1006.10
2023-04-20T09:52:46.579Z,1006.09
2023-04-20T09:53:46.579Z,1006.07
2023-04-20T09:54:46.595Z,1006.06
2023-04-20T09:55:46.616Z,1006.04
2023-04-20T09:56:46.637Z,1006.02
2023-04-20T09:57:46.534Z,1006.02
2023-04-20T09:58:46.556Z,1005.99
2023-04-20T09:59:46.772Z,1006.01
2023-04-20T10:00:46.551Z,1005.96
2023-04-20T10:01:46.578Z,1005.95
2023-04-20T10:02:46.850Z,1005.94
2023-04-20T10:03:46.653Z,1005.90
2023-04-20T10:04:46.498Z,1005.90
2023-04-20T10:05:46.461Z,1005.88
2023-04-20T10:06:46.446Z,1005.88
2023-04-20T10:07:46.456Z,1005.84
2023-04-20T10:08:46.484Z,1005.84
2023-04-20T10:09:46.409Z,1005.80
2023-04-20T10:10:46.473Z,1005.80
2023-04-20T10:11:53.153Z,1005.78
2023-04-20T10:12:46.557Z,1005.75
2023-04-20T10:13:46.422Z,1005.70
2023-04-20T10:14:46.423Z,1005.68
2023-04-20T10:15:46.373Z,1005.63
2023-04-20T10:16:46.424Z,1005.61
2023-04-20T10:17:46.560Z,1005.60
2023-04-20T10:18:46.923Z,1005.55
2023-04-20T10:19:46.336Z,1005.55
2023-04-20T10:20:46.310Z,1005.54
2023-04-20T10:21:46.414Z,1005.55
2023-04-20T10:22:46.288Z,1005.54
2023-04-20T10:23:46.279Z,1005.55
2023-04-20T10:24:46.292Z,1005.50
2023-04-20T10:25:46.338Z,1005.48
2023-04-20T10:26:46.310Z,1005.48
2023-04-20T10:27:46.234Z,1005.47
2023-04-20T10:28:46.240Z,1005.43
2023-04-20T10:29:46.244Z,1005.44
2023-04-20T10:30:46.300Z,1005.43
2023-04-20T10:31:46.210Z,1005.41
2023-04-20T10:32:46.225Z,1005.39
2023-04-20T10:33:46.245Z,1005.37
2023-04-20T10:34:46.214Z,1005.36
2023-04-20T10:35:46.175Z,1005.35
2023-04-20T10:36:46.155Z,1005.38
2023-04-20T10:37:46.162Z,1005.34
2023-04-20T10:38:46.269Z,1005.38
2023-04-20T10:39:46.216Z,1005.36
2023-04-20T10:40:46.139Z,1005.32
2023-04-20T10:41:46.091Z,1005.31
2023-04-20T10:42:46.090Z,1005.28
2023-04-20T10:43:46.336Z,1005.30
2023-04-20T10:44:46.144Z,1005.30
2023-04-20T10:45:46.071Z,1005.24
2023-04-20T10:46:46.356Z,1005.24
2023-04-20T10:47:46.086Z,1005.24
2023-04-20T10:48:46.027Z,1005.22
2023-04-20T10:49:46.057Z,1005.20
2023-04-20T10:50:46.027Z,1005.19
2023-04-20T10:51:46.009Z,1005.14
2023-04-20T10:52:46.167Z,1005.15
2023-04-20T10:53:45.971Z,1005.13
2023-04-20T10:54:45.979Z,1005.22
2023-04-20T10:55:45.948Z,1005.15
2023-04-20T10:56:45.948Z,1005.13
2023-04-20T10:57:45.956Z,1005.12
2023-04-20T10:58:45.917Z,1005.07
2023-04-20T10:59:45.978Z,1005.03
2023-04-20T11:00:45.914Z,1005.00
2023-04-20T11:01:45.959Z,1004.99
2023-04-20T11:02:45.975Z,1004.94
2023-04-20T11:03:46.514Z,1004.97
2023-04-20T11:04:46.635Z,1004.96
2023-04-20T11:05:46.116Z,1004.99
2023-04-20T11:06:45.869Z,1004.90
2023-04-20T11:07:46.072Z,1004.85
2023-04-20T11:08:46.732Z,1004.85
2023-04-20T11:09:45.829Z,1004.82
2023-04-20T11:10:45.793Z,1004.79
2023-04-20T11:11:46.118Z,1004.75
2023-04-20T11:12:45.827Z,1004.68
2023-04-20T11:13:45.801Z,1004.66
2023-04-20T11:14:45.812Z,1004.67
2023-04-20T11:15:45.831Z,1004.67
2023-04-20T11:16:51.638Z,1004.65
2023-04-20T11:17:46.616Z,1004.67
2023-04-20T11:18:45.796Z,1004.62
2023-04-20T11:19:48.490Z,1004.64
2023-04-20T11:20:45.805Z,1004.65
2023-04-20T11:21:48.760Z,1004.64
2023-04-20T11:22:47.697Z,1004.60
2023-04-20T11:23:46.696Z,1004.61
2023-04-20T11:24:45.735Z,1004.56
2023-04-20T11:25:45.745Z,1004.52
2023-04-20T11:26:47.554Z,1004.53
2023-04-20T11:27:45.647Z,1004.56
2023-04-20T11:28:45.964Z,1004.57
2023-04-20T11:29:45.667Z,1004.53
2023-04-20T11:30:46.651Z,1004.52
2023-04-20T11:31:45.656Z,1004.55
2023-04-20T11:32:46.758Z,1004.54
2023-04-20T11:33:45.638Z,1004.55
2023-04-20T11:34:47.980Z,1004.55
2023-04-20T11:35:45.561Z,1004.56
2023-04-20T11:36:46.673Z,1004.53
2023-04-20T11:37:45.697Z,1004.53
2023-04-20T11:38:45.849Z,1004.52
2023-04-20T11:39:46.448Z,1004.48
2023-04-20T11:40:45.506Z,1004.47
2023-04-20T11:41:47.124Z,1004.46
2023-04-20T11:42:45.812Z,1004.47
2023-04-20T11:43:46.308Z,1004.43
2023-04-20T11:44:45.814Z,1004.42
2023-04-20T11:45:45.758Z,1004.41
2023-04-20T11:46:45.513Z,1004.37
2023-04-20T11:47:46.338Z,1004.35
2023-04-20T11:48:46.055Z,1004.37
2023-04-20T11:49:45.496Z,1004.43
2023-04-20T11:50:45.696Z,1004.42
2023-04-20T11:51:45.570Z,1004.37
2023-04-20T11:52:45.447Z,1004.39
2023-04-20T11:53:45.461Z,1004.39
2023-04-20T11:54:46.278Z,1004.39
2023-04-20T11:55:45.421Z,1004.35
2023-04-20T11:56:45.442Z,1004.37
2023-04-20T11:57:47.116Z,1004.29
2023-04-20T11:58:45.349Z,1004.27
2023-04-20T11:59:45.358Z,1004.28
2023-04-20T12:00:45.633Z,1004.32
2023-04-20T12:01:45.505Z,1004.34
2023-04-20T12:02:45.476Z,1004.25
2023-04-20T12:03:47.773Z,1004.28
2023-04-20T12:04:45.407Z,1004.24
2023-04-20T12:05:45.348Z,1004.24